Catàleg de serveis del Meteocat
Campanya meteocatpedra

Dades de l'estació automàtica Castellnou de Seana

?
?
Resum diari 23:00 TU
Dades diàries de l'estació meteorològica
Temperatura mitjana 23.7 °C
Temperatura màxima 30.8 °C 14:41 TU
Temperatura mínima 15.8 °C 4:44 TU
Humitat relativa mitjana 60%
Precipitació acumulada 0.0 mm
Ratxa màxima del vent (10 m) 32.0 km/h - 282º 13:03 TU
Pressió atmosfèrica mitjana 1011.2 hPa
Irradiació solar global 30.2 MJ/m2

El tram horari està expressat en Temps Universal (TU). Cal sumar una hora en horari d'hivern i dues en horari d'estiu per passar a l'hora oficial.

Castellnou de Seana

Metadades estació meteorol´gica
Municipi Castellnou de Seana
Comarca Pla d'Urgell
Altitud 264 m
Data alta 16.12.1995
Estat actual Operativa
Dades de període
Període
TU
TM
°C
TX
°C
TN
°C
HRM
%
PPT
mm
VVM (10 m)
km/h
DVM (10 m)
graus
VVX (10 m)
km/h
PM
hPa
RS
W/m2
00:00 - 00:30 19.8 20.1 19.7 70 0.0 7.6 244 11.9 1011.3 0
00:30 - 01:00 19.8 20.0 19.7 70 0.0 9.7 241 18.0 1011.3 0
01:00 - 01:30 19.0 19.7 18.4 74 0.0 9.0 228 14.0 1011.4 0
01:30 - 02:00 18.1 18.3 17.8 79 0.0 6.1 228 11.9 1011.4 0
02:00 - 02:30 17.7 17.8 17.5 79 0.0 7.9 227 14.0 1011.4 0
02:30 - 03:00 17.4 17.6 17.0 78 0.0 6.1 238 9.4 1011.5 0
03:00 - 03:30 16.7 17.0 16.4 81 0.0 7.9 218 10.8 1011.5 0
03:30 - 04:00 16.5 16.6 16.3 80 0.0 8.6 236 14.0 1011.8 0
04:00 - 04:30 16.1 16.3 15.8 81 0.0 7.6 235 10.8 1011.8 0
04:30 - 05:00 15.9 16.0 15.8 81 0.0 6.5 232 10.1 1012.0 8
05:00 - 05:30 17.0 18.7 16.0 79 0.0 1.4 239 5.8 1012.1 59
05:30 - 06:00 19.7 20.3 18.7 68 0.0 2.2 243 7.6 1011.9 139
06:00 - 06:30 20.7 21.2 20.2 63 0.0 6.1 253 16.2 1011.9 215
06:30 - 07:00 21.1 21.7 20.6 60 0.0 8.6 260 16.2 1012.1 333
07:00 - 07:30 21.7 22.0 21.3 59 0.0 9.7 259 15.1 1012.1 412
07:30 - 08:00 22.3 22.7 21.7 58 0.0 10.4 251 18.4 1012.2 518
08:00 - 08:30 23.0 23.4 22.6 58 0.0 10.1 261 18.0 1012.1 610
08:30 - 09:00 23.5 24.2 23.2 58 0.0 11.2 257 18.0 1012.0 690
09:00 - 09:30 24.2 24.5 23.9 58 0.0 11.9 249 19.1 1011.7 762
09:30 - 10:00 24.9 25.3 24.4 58 0.0 11.9 251 22.3 1011.6 828
10:00 - 10:30 25.6 26.1 25.2 57 0.0 13.3 247 23.4 1011.4 886
10:30 - 11:00 26.4 27.0 25.9 55 0.0 14.0 244 22.7 1011.2 931
11:00 - 11:30 27.1 27.8 26.6 52 0.0 14.8 259 22.3 1010.9 966
11:30 - 12:00 27.9 28.3 27.6 48 0.0 15.1 255 28.1 1010.5 986
12:00 - 12:30 28.4 28.9 27.9 46 0.0 15.8 255 28.4 1010.2 984
12:30 - 13:00 29.0 29.7 28.6 45 0.0 15.8 266 29.2 1010.0 961
13:00 - 13:30 29.5 29.9 29.2 41 0.0 16.9 274 32.0 1009.8 943
13:30 - 14:00 29.9 30.3 29.5 39 0.0 15.8 269 25.6 1009.5 904
14:00 - 14:30 30.2 30.6 29.9 38 0.0 15.8 262 26.3 1009.4 845
14:30 - 15:00 30.5 30.8 30.1 38 0.0 14.8 262 24.8 1009.3 781
15:00 - 15:30 30.7 30.8 30.6 36 0.0 15.1 273 24.1 1009.0 702
15:30 - 16:00 30.4 30.7 30.2 36 0.0 16.6 266 26.6 1008.9 621
16:00 - 16:30 30.5 30.6 30.3 38 0.0 14.8 250 26.6 1008.8 527
16:30 - 17:00 30.2 30.3 30.1 40 0.0 14.0 243 23.8 1008.9 431
17:00 - 17:30 30.0 30.3 29.8 41 0.0 11.9 246 20.2 1009.0 331
17:30 - 18:00 30.1 30.4 29.9 43 0.0 6.5 253 12.6 1009.1 235
18:00 - 18:30 29.2 30.0 28.2 46 0.0 6.8 268 10.4 1009.5 138
18:30 - 19:00 27.8 28.1 27.0 52 0.0 5.0 247 7.6 1009.9 66
19:00 - 19:30 25.4 26.8 24.7 57 0.0 11.9 156 27.7 1010.6 14
19:30 - 20:00 23.9 24.6 23.3 64 0.0 14.8 146 20.9 1011.1 0
20:00 - 20:30 23.0 23.4 22.7 69 0.0 14.8 156 21.2 1011.9 0
20:30 - 21:00 22.3 23.0 22.0 75 0.0 13.7 156 19.8 1012.5 0
21:00 - 21:30 21.9 22.2 21.7 76 0.0 12.2 158 20.2 1013.0 0
21:30 - 22:00 21.6 21.8 21.3 72 0.0 10.4 181 21.6 1013.4 0
22:00 - 22:30 20.7 21.4 20.1 78 0.0 4.0 11 9.4 1014.1 0
22:30 - 23:00 19.8 20.5 19.4 81 0.0 6.1 58 10.8 1014.6 0
23:00 - 23:30 19.0 19.5 18.7 84 0.0 6.5 95 9.4 1015.0 0

Les dades en taronja només han passat un control de qualitat automàtic. Resta pendent la seva validació definitiva.